Manifest, Louisiana
Current Conditions -  °F | °C
As of 4:53 PM on Wednesday 26 Nov 2014 (Local Time) from KESF Reporting Station
Clear Clear  
Wind Chill: 65°   Ceiling: Unl
Heat Index: 65°   Visibility: 10mi
Dew Point: 37°   Wind: 8mph
Humidity: 36%   Direction: 280°W
Pressure: 30.15"   Gusts: NA
Location:  31.5028°N, 91.9028°W
Report Text: KESF 262253Z AUTO 28007KT 10SM CLR 18/03 A3015 RMK AO2 SLP210 T01830028
Loading
Personal Weather Stations






























Interactive Weather Map New forecast layout! Learn more

10-Day Weather Forecast

Advertisements
Track Severe Weather on mobile